Time;durP1;ratioP1;P1;durP2;ratioP2;P2;SDS_P1;SDS_P2;PMS_P1;PMS_P2;Temp;Humidity;BMP_temperature;BMP_pressure;BME280_temperature;BME280_humidity;BME280_pressure;Samples;Min_cycle;Max_cycle;Signal;HPM_P1;HPM_P2
2023/02/03 00:01:14;;;;;;;;;;;;;;;28.09;63.97;101060.81;5088514;27;65200;-40
2023/02/03 00:03:45;;;;;;;;;;;;;;;28.11;64.01;101066.84;5097582;27;69261;-39
2023/02/03 00:06:15;;;;;;;;;;;;;;;28.03;66.53;101068.66;5081768;27;66125;-38
2023/02/03 00:08:46;;;;;;;;;;;;;;;28.02;67.16;101076.94;5079048;27;70045;-36
2023/02/03 00:11:17;;;;;;;;;;;;;;;28.05;67.01;101081.94;5064226;27;66330;-38
2023/02/03 00:13:47;;;;;;;;;;;;;;;28.12;67.01;101087.41;5095266;27;69366;-37
2023/02/03 00:16:18;;;;;;;;;;;;;;;28.17;66.41;101084.94;5097036;27;66688;-37
2023/02/03 00:18:49;;;;;;;;;;;;;;;28.20;66.53;101084.56;5095187;27;70221;-38
2023/02/03 00:21:20;;;;;;;;;;;;;;;28.23;66.66;101090.38;5091022;27;66568;-36
2023/02/03 00:23:50;;;;;;;;;;;;;;;28.23;66.41;101093.06;5076612;27;69909;-39
2023/02/03 00:26:21;;;;;;;;;;;;;;;28.30;66.52;101098.50;5073655;27;65512;-38
2023/02/03 00:28:52;;;;;;;;;;;;;;;28.31;66.69;101097.50;5098003;27;70189;-42
2023/02/03 00:31:23;;;;;;;;;;;;;;;28.35;66.91;101098.75;5075027;27;65580;-37
2023/02/03 00:33:55;;;;;;;;;;;;;;;28.37;66.70;101107.50;5091427;27;69376;-37
2023/02/03 00:36:26;;;;;;;;;;;;;;;28.39;67.08;101104.56;5074360;27;65597;-37
2023/02/03 00:38:57;;;;;;;;;;;;;;;28.44;67.68;101111.06;5089531;27;70585;-38
2023/02/03 00:41:30;;;;;;;;;;;;;;;28.40;65.98;101101.69;5070874;27;65458;-39
2023/02/03 00:44:01;;;;;;;;;;;;;;;28.42;64.75;101115.00;5098423;27;70412;-37
2023/02/03 00:46:33;;;;;;;;;;;;;;;28.43;63.82;101117.50;5080466;27;65544;-39
2023/02/03 00:49:04;;;;;;;;;;;;;;;28.47;63.46;101112.53;5091378;27;69392;-38
2023/02/03 00:51:38;;;;;;;;;;;;;;;28.49;62.93;101119.41;5073431;27;58469;-39
2023/02/03 00:54:10;;;;;;;;;;;;;;;28.52;63.20;101119.00;5081581;27;70781;-38
2023/02/03 00:56:42;;;;;;;;;;;;;;;28.57;62.71;101117.59;5090970;27;66023;-38
2023/02/03 00:59:12;;;;;;;;;;;;;;;28.59;62.58;101126.34;5091431;27;69892;-38
2023/02/03 01:01:43;;;;;;;;;;;;;;;28.60;62.58;101128.00;5091713;27;67271;-37
2023/02/03 01:04:13;;;;;;;;;;;;;;;28.63;62.70;101124.91;5091551;27;69950;-37
2023/02/03 01:06:44;;;;;;;;;;;;;;;28.66;62.87;101132.59;5094901;27;66593;-37
2023/02/03 01:09:15;;;;;;;;;;;;;;;28.68;62.88;101133.22;5073339;27;69854;-37
2023/02/03 01:11:45;;;;;;;;;;;;;;;28.71;62.74;101138.22;5076344;27;66674;-38
2023/02/03 01:14:16;;;;;;;;;;;;;;;28.72;62.56;101131.78;5087437;27;70736;-37
2023/02/03 01:16:47;;;;;;;;;;;;;;;28.75;62.53;101136.78;5078006;27;66036;-38
2023/02/03 01:19:18;;;;;;;;;;;;;;;28.77;62.56;101137.44;5090093;27;69806;-38
2023/02/03 01:21:49;;;;;;;;;;;;;;;28.79;62.50;101138.06;5071277;27;65471;-37
2023/02/03 01:24:19;;;;;;;;;;;;;;;28.82;62.45;101134.97;5077194;27;69952;-38
2023/02/03 01:26:50;;;;;;;;;;;;;;;28.84;62.95;101134.78;5091152;27;67125;-37
2023/02/03 01:29:21;;;;;;;;;;;;;;;28.84;62.82;101134.78;5090971;27;69454;-38
2023/02/03 01:31:52;;;;;;;;;;;;;;;28.86;62.31;101148.88;5097176;27;66647;-39
2023/02/03 01:34:23;;;;;;;;;;;;;;;28.89;62.68;101153.88;5091080;27;70218;-37
2023/02/03 01:36:54;;;;;;;;;;;;;;;28.90;62.79;101151.00;5097741;27;66680;-38
2023/02/03 01:39:26;;;;;;;;;;;;;;;28.92;62.76;101148.09;5101025;27;69680;-38
2023/02/03 01:41:56;;;;;;;;;;;;;;;28.94;62.52;101152.25;5102378;27;65539;-37
2023/02/03 01:44:33;;;;;;;;;;;;;;;28.96;62.54;101152.88;5101898;27;70710;-38
2023/02/03 01:47:12;;;;;;;;;;;;;;;28.99;62.90;101153.53;5105203;27;66696;-41
2023/02/03 01:49:46;;;;;;;;;;;;;;;29.01;62.45;101151.47;5092184;27;70369;-38
2023/02/03 01:52:16;;;;;;;;;;;;;;;29.02;62.42;101153.13;5076657;27;65708;-39
2023/02/03 01:54:49;;;;;;;;;;;;;;;29.05;62.51;101158.16;5096880;27;70355;-38
2023/02/03 01:57:21;;;;;;;;;;;;;;;29.07;62.90;101161.50;5067837;27;66334;-37
2023/02/03 01:59:55;;;;;;;;;;;;;;;29.09;62.95;101151.31;5082696;27;70636;-39
2023/02/03 02:02:28;;;;;;;;;;;;;;;29.13;62.64;101157.97;5037942;28;65769;-37
2023/02/03 02:05:09;;;;;;;;;;;;;;;29.14;62.79;101156.94;5092382;27;70279;-38
2023/02/03 02:07:41;;;;;;;;;;;;;;;29.15;63.09;101158.63;5096395;27;66859;-38
2023/02/03 02:10:12;;;;;;;;;;;;;;;29.17;63.02;101157.38;5091438;27;69386;-38
2023/02/03 02:12:42;;;;;;;;;;;;;;;29.20;63.20;101166.09;5100275;27;65706;-37
2023/02/03 02:15:14;;;;;;;;;;;;;;;29.23;62.87;101161.16;5094537;27;69873;-38
2023/02/03 02:17:58;;;;;;;;;;;;;;;29.25;63.27;101158.22;5054967;27;67076;-37
2023/02/03 02:20:33;;;;;;;;;;;;;;;29.27;62.83;101166.97;5071911;27;68997;-37
2023/02/03 02:23:03;;;;;;;;;;;;;;;29.29;63.37;101163.03;5085531;27;65228;-38
2023/02/03 02:25:40;;;;;;;;;;;;;;;29.31;63.41;101163.66;5093448;27;69460;-38
2023/02/03 02:28:23;;;;;;;;;;;;;;;29.32;63.39;101159.91;5093351;27;66706;-39
2023/02/03 02:31:02;;;;;;;;;;;;;;;29.36;62.99;101165.75;5068435;27;69052;-38
2023/02/03 02:33:49;;;;;;;;;;;;;;;29.37;62.95;101160.16;5075139;27;66883;-39
2023/02/03 02:36:22;;;;;;;;;;;;;;;29.41;63.79;101160.56;5088952;27;69405;-39
2023/02/03 02:38:56;;;;;;;;;;;;;;;29.42;64.00;101158.69;5092544;27;65991;-38
2023/02/03 02:41:35;;;;;;;;;;;;;;;29.45;64.00;101158.28;5057400;27;68617;-37
2023/02/03 02:44:15;;;;;;;;;;;;;;;29.47;63.56;101148.09;5094470;27;65805;-37
2023/02/03 02:46:47;;;;;;;;;;;;;;;29.50;63.64;101153.09;5098752;27;69145;-39
2023/02/03 02:49:27;;;;;;;;;;;;;;;29.51;63.82;101138.56;5083516;27;66402;-38
2023/02/03 02:51:59;;;;;;;;;;;;;;;29.55;63.61;101143.34;5095066;27;69098;-38
2023/02/03 02:54:31;;;;;;;;;;;;;;;29.57;64.00;101135.03;5094658;27;66529;-39
2023/02/03 02:57:04;;;;;;;;;;;;;;;29.59;63.78;101132.97;5087939;27;70634;-37
2023/02/03 02:59:34;;;;;;;;;;;;;;;29.62;63.81;101132.56;5081647;27;66904;-37
2023/02/03 03:02:05;;;;;;;;;;;;;;;29.64;64.06;101125.06;5094979;27;70272;-39
2023/02/03 03:04:35;;;;;;;;;;;;;;;29.65;64.18;101121.34;5093942;27;66655;-36
2023/02/03 03:07:10;;;;;;;;;;;;;;;29.70;64.69;101113.47;5082266;27;69859;-36
2023/02/03 03:09:47;;;;;;;;;;;;;;;29.78;64.55;101109.69;5099505;27;66596;-36
2023/02/03 03:12:21;;;;;;;;;;;;;;;29.80;62.87;101108.47;5096300;27;69789;-36
2023/02/03 03:14:59;;;;;;;;;;;;;;;29.84;61.63;101103.50;5091591;27;66623;-37
2023/02/03 03:17:32;;;;;;;;;;;;;;;29.88;62.72;101101.19;5051736;27;70290;-37
2023/02/03 03:20:06;;;;;;;;;;;;;;;29.88;62.56;101099.31;5086329;27;67038;-38
2023/02/03 03:22:41;;;;;;;;;;;;;;;29.92;61.50;101097.00;5065542;27;69458;-41
2023/02/03 03:25:20;;;;;;;;;;;;;;;29.95;62.01;101088.47;5076409;27;66721;-39
2023/02/03 03:27:57;;;;;;;;;;;;;;;29.96;61.21;101090.16;5087906;27;69914;-40
2023/02/03 03:30:32;;;;;;;;;;;;;;;29.99;61.18;101087.03;5093983;27;67088;-41
2023/02/03 03:33:03;;;;;;;;;;;;;;;29.99;61.01;101077.03;5096438;27;69510;-39
2023/02/03 03:35:39;;;;;;;;;;;;;;;30.01;60.89;101071.44;5093121;27;65785;-38
2023/02/03 03:38:13;;;;;;;;;;;;;;;30.03;61.33;101072.03;5075856;27;69914;-41
2023/02/03 03:40:49;;;;;;;;;;;;;;;30.06;60.96;101063.50;5093263;27;66841;-39
2023/02/03 03:43:22;;;;;;;;;;;;;;;30.08;61.62;101066.00;5056370;27;69660;-38
2023/02/03 03:46:11;;;;;;;;;;;;;;;30.09;61.62;101055.00;5098371;27;64757;-39
2023/02/03 03:48:49;;;;;;;;;;;;;;;30.10;61.42;101053.94;5089736;27;70517;-39
2023/02/03 03:51:22;;;;;;;;;;;;;;;30.13;61.84;101044.56;5096106;27;65798;-39
2023/02/03 03:53:55;;;;;;;;;;;;;;;30.13;61.49;101048.09;5090293;27;70787;-38
2023/02/03 03:56:32;;;;;;;;;;;;;;;30.15;61.89;101035.19;5094667;27;65814;-41
2023/02/03 03:59:03;;;;;;;;;;;;;;;30.16;62.03;101030.63;5087397;27;68423;-40
2023/02/03 04:01:34;;;;;;;;;;;;;;;30.17;61.50;101027.72;5091792;27;65774;-38
2023/02/03 04:04:07;;;;;;;;;;;;;;;30.19;61.39;101014.78;5094887;27;68622;-37
2023/02/03 04:06:38;;;;;;;;;;;;;;;30.20;61.60;101004.78;5090361;27;66679;-38
2023/02/03 04:09:09;;;;;;;;;;;;;;;30.21;60.98;101012.69;5090410;27;69866;-39
2023/02/03 04:14:32;;;;;;;;;;;;;;;30.24;60.80;101001.47;5096879;27;70467;-39
2023/02/03 04:17:03;;;;;;;;;;;;;;;30.27;61.09;100989.41;5092049;27;66973;-37
2023/02/03 04:19:34;;;;;;;;;;;;;;;30.28;60.95;100986.50;5098200;27;70502;-38
2023/02/03 04:22:06;;;;;;;;;;;;;;;30.30;61.00;100978.16;5098749;27;65589;-39
2023/02/03 04:24:37;;;;;;;;;;;;;;;29.82;60.74;100909.00;5100074;27;70374;-37
2023/02/03 04:27:07;;;;;;;;;;;;;;;30.34;60.78;100967.72;5075644;27;66713;-38
2023/02/03 04:29:37;;;;;;;;;;;;;;;30.36;60.59;100960.22;5101413;27;70173;-39
2023/02/03 04:32:08;;;;;;;;;;;;;;;30.37;60.55;100960.00;5093966;27;66086;-42
2023/02/03 04:34:39;;;;;;;;;;;;;;;30.38;60.21;100958.13;5090710;27;69636;-40
2023/02/03 04:37:09;;;;;;;;;;;;;;;30.39;60.38;100949.78;5097420;27;66166;-38
2023/02/03 04:39:40;;;;;;;;;;;;;;;30.25;60.09;100915.72;5099386;27;70388;-37
2023/02/03 04:42:10;;;;;;;;;;;;;;;30.43;59.80;100944.78;5100420;27;66069;-38
2023/02/03 04:44:41;;;;;;;;;;;;;;;30.44;59.75;100930.19;5076872;27;69923;-39
2023/02/03 04:47:12;;;;;;;;;;;;;;;30.46;59.68;100928.13;5095359;27;66775;-37
2023/02/03 04:49:42;;;;;;;;;;;;;;;30.48;59.76;100923.31;5095067;27;69382;-38
2023/02/03 04:52:13;;;;;;;;;;;;;;;30.51;59.33;100931.00;5094434;27;66911;-38
2023/02/03 04:54:43;;;;;;;;;;;;;;;30.53;59.60;100923.47;5089370;27;68958;-38
2023/02/03 04:57:14;;;;;;;;;;;;;;;30.55;59.10;100910.56;5092781;27;66152;-36
2023/02/03 04:59:45;;;;;;;;;;;;;;;30.57;59.25;100903.06;5092954;27;69874;-39
2023/02/03 05:02:15;;;;;;;;;;;;;;;30.63;58.43;100891.34;5093368;27;65940;-36
2023/02/03 05:04:46;;;;;;;;;;;;;;;30.67;58.37;100898.00;5092352;27;69388;-39
2023/02/03 05:07:17;;;;;;;;;;;;;;;30.69;58.54;100890.47;5090584;27;67164;-39
2023/02/03 05:09:48;;;;;;;;;;;;;;;30.70;59.00;100881.31;5084748;27;70428;-39
2023/02/03 05:12:19;;;;;;;;;;;;;;;30.71;58.75;100871.31;5097040;27;66268;-38
2023/02/03 05:14:50;;;;;;;;;;;;;;;30.71;59.00;100872.13;5091066;27;70518;-39
2023/02/03 05:17:20;;;;;;;;;;;;;;;30.75;59.04;100871.69;5087513;27;66086;-39
2023/02/03 05:19:51;;;;;;;;;;;;;;;30.74;59.08;100862.75;5093485;27;70222;-36
2023/02/03 05:22:21;;;;;;;;;;;;;;;30.74;59.40;100870.88;5087538;27;65996;-38
2023/02/03 05:24:52;;;;;;;;;;;;;;;30.75;59.11;100861.69;5088084;27;70539;-38
2023/02/03 05:27:23;;;;;;;;;;;;;;;30.76;59.68;100851.69;5095017;27;66307;-38
2023/02/03 05:29:53;;;;;;;;;;;;;;;30.78;59.44;100850.41;5082262;27;69967;-38
2023/02/03 05:32:24;;;;;;;;;;;;;;;30.80;59.35;100839.41;5094665;27;66684;-40
2023/02/03 05:34:55;;;;;;;;;;;;;;;30.82;59.71;100848.16;5097956;27;70559;-38
2023/02/03 05:37:25;;;;;;;;;;;;;;;30.84;59.78;100841.47;5090411;27;65562;-38
2023/02/03 05:41:51;;;;;;;;;;;;;;;30.86;59.39;100833.91;5064664;27;69944;-39
2023/02/03 05:42:47;;;;;;;;;;;;;;;30.87;59.61;100826.63;5097209;27;67025;-39
2023/02/03 05:45:18;;;;;;;;;;;;;;;30.90;59.86;100823.50;5096179;27;70321;-38
2023/02/03 05:47:48;;;;;;;;;;;;;;;30.92;59.60;100832.22;5097378;27;65787;-39
2023/02/03 05:50:18;;;;;;;;;;;;;;;30.94;59.82;100822.00;5097206;27;69843;-39
2023/02/03 05:52:49;;;;;;;;;;;;;;;30.96;59.44;100814.47;5088782;27;66615;-39
2023/02/03 05:55:19;;;;;;;;;;;;;;;30.97;59.85;100812.59;5072875;27;69329;-39
2023/02/03 05:57:50;;;;;;;;;;;;;;;31.00;59.57;100810.25;5072915;27;66611;-39
2023/02/03 06:00:21;;;;;;;;;;;;;;;31.01;59.40;100811.94;5094991;27;70152;-38
2023/02/03 06:02:52;;;;;;;;;;;;;;;31.00;59.77;100804.84;5088518;27;66324;-37
2023/02/03 06:05:23;;;;;;;;;;;;;;;31.04;59.67;100806.06;5077447;27;69979;-39
2023/02/03 06:07:54;;;;;;;;;;;;;;;31.06;59.84;100793.09;5089621;27;66020;-38
2023/02/03 06:10:24;;;;;;;;;;;;;;;31.07;59.80;100789.38;5081138;27;70366;-39
2023/02/03 06:12:56;;;;;;;;;;;;;;;31.10;59.27;100778.06;5073733;27;66920;-38
2023/02/03 06:15:27;;;;;;;;;;;;;;;31.13;59.56;100783.03;5099587;27;70582;-38
2023/02/03 06:17:57;;;;;;;;;;;;;;;31.15;58.95;100772.00;5088427;27;65558;-36
2023/02/03 06:20:28;;;;;;;;;;;;;;;31.16;59.25;100769.03;5086221;27;70411;-39
2023/02/03 06:22:59;;;;;;;;;;;;;;;31.18;59.10;100763.41;5093931;27;66423;-42
2023/02/03 06:25:31;;;;;;;;;;;;;;;31.22;59.27;100769.19;5101081;27;70777;-38
2023/02/03 06:28:01;;;;;;;;;;;;;;;31.24;59.04;100761.69;5080341;27;66080;-38
2023/02/03 06:30:32;;;;;;;;;;;;;;;31.25;59.44;100752.47;5083464;27;69242;-37
2023/02/03 06:33:03;;;;;;;;;;;;;;;31.25;59.33;100752.47;5096088;27;66900;-37
2023/02/03 06:35:33;;;;;;;;;;;;;;;31.29;59.24;100753.69;5086499;27;70492;-38
2023/02/03 06:38:04;;;;;;;;;;;;;;;31.30;59.17;100750.75;5101118;27;67502;-38
2023/02/03 06:40:35;;;;;;;;;;;;;;;31.32;58.92;100753.25;5098261;27;69768;-36
2023/02/03 06:43:05;;;;;;;;;;;;;;;31.33;59.34;100739.44;5067779;27;66497;-39
2023/02/03 06:45:36;;;;;;;;;;;;;;;31.34;58.81;100733.00;5101753;27;69783;-43
2023/02/03 06:48:07;;;;;;;;;;;;;;;31.36;59.12;100727.38;5100108;27;67102;-40
2023/02/03 06:50:38;;;;;;;;;;;;;;;31.40;59.01;100728.59;5080888;27;70442;-38
2023/02/03 06:53:08;;;;;;;;;;;;;;;31.40;59.05;100723.16;5101646;27;65568;-38
2023/02/03 06:55:39;;;;;;;;;;;;;;;31.42;58.98;100721.03;5080434;27;70308;-38
2023/02/03 06:58:09;;;;;;;;;;;;;;;31.44;58.95;100713.50;5090245;27;65376;-38
2023/02/03 07:00:40;;;;;;;;;;;;;;;31.47;58.71;100713.03;5095367;27;70329;-38
2023/02/03 07:03:10;;;;;;;;;;;;;;;31.44;59.01;100702.66;5098356;27;66096;-38
2023/02/03 07:05:41;;;;;;;;;;;;;;;31.47;59.07;100696.78;5097782;27;69983;-37
2023/02/03 07:08:12;;;;;;;;;;;;;;;31.48;58.68;100693.03;5094491;27;66439;-38
2023/02/03 07:10:43;;;;;;;;;;;;;;;31.50;59.04;100696.31;5098510;27;70364;-38
2023/02/03 07:13:14;;;;;;;;;;;;;;;31.53;58.55;100701.28;5092455;27;66314;-41
2023/02/03 07:15:45;;;;;;;;;;;;;;;31.55;58.47;100687.50;5081144;27;69954;-37
2023/02/03 07:18:16;;;;;;;;;;;;;;;31.56;58.85;100689.97;5097347;27;65514;-38
2023/02/03 07:21:07;;;;;;;;;;;;;;;31.56;58.98;100673.69;5079417;27;70207;-38
2023/02/03 07:23:38;;;;;;;;;;;;;;;31.59;59.03;100678.69;5091736;27;66705;-38
2023/02/03 07:26:09;;;;;;;;;;;;;;;31.61;58.91;100665.72;5085830;27;69939;-38
2023/02/03 07:28:40;;;;;;;;;;;;;;;31.64;58.98;100660.91;5090209;27;66386;-39
2023/02/03 07:31:10;;;;;;;;;;;;;;;31.67;58.84;100653.13;5095066;27;69603;-38
2023/02/03 07:33:41;;;;;;;;;;;;;;;31.70;58.53;100654.53;5073759;27;66011;-39
2023/02/03 07:36:12;;;;;;;;;;;;;;;31.70;58.71;100658.06;5090879;27;70137;-42
2023/02/03 07:38:43;;;;;;;;;;;;;;;31.73;58.68;100654.06;5078165;27;65974;-39
2023/02/03 07:41:14;;;;;;;;;;;;;;;31.74;58.90;100644.91;5077247;27;71125;-40
2023/02/03 07:43:46;;;;;;;;;;;;;;;31.74;58.93;100640.28;5060892;27;66531;-39
2023/02/03 07:46:17;;;;;;;;;;;;;;;31.76;59.15;100640.91;5062618;27;69352;-39
2023/02/03 07:48:48;;;;;;;;;;;;;;;31.77;58.81;100636.28;5079325;27;65486;-37
2023/02/03 07:51:19;;;;;;;;;;;;;;;31.80;58.95;100630.41;5072998;27;69698;-37
2023/02/03 07:53:49;;;;;;;;;;;;;;;31.80;59.03;100631.22;5071371;28;66208;-37
2023/02/03 07:56:20;;;;;;;;;;;;;;;31.82;58.94;100625.59;5073566;27;70812;-39
2023/02/03 07:58:54;;;;;;;;;;;;;;;31.82;58.84;100623.69;5075796;28;66423;-38
2023/02/03 08:01:24;;;;;;;;;;;;;;;31.86;58.76;100617.78;5069306;27;70335;-37
2023/02/03 08:03:55;;;;;;;;;;;;;;;31.89;58.57;100610.00;5079542;27;66384;-38
2023/02/03 08:06:25;;;;;;;;;;;;;;;31.94;58.56;100615.59;5077010;27;70513;-41
2023/02/03 08:08:56;;;;;;;;;;;;;;;31.96;58.68;100615.38;5079099;27;66900;-37
2023/02/03 08:11:26;;;;;;;;;;;;;;;31.98;58.58;100605.94;5073126;28;69270;-40
2023/02/03 08:13:57;;;;;;;;;;;;;;;32.00;58.63;100606.50;5071555;28;66789;-38
2023/02/03 08:16:27;;;;;;;;;;;;;;;32.03;58.18;100600.63;5077401;27;68868;-39
2023/02/03 08:18:58;;;;;;;;;;;;;;;32.05;58.11;100601.22;5076511;27;67136;-37
2023/02/03 08:21:28;;;;;;;;;;;;;;;32.09;57.76;100589.88;5074694;27;70360;-39
2023/02/03 08:23:58;;;;;;;;;;;;;;;32.12;57.77;100589.41;5078248;27;66706;-39
2023/02/03 08:26:28;;;;;;;;;;;;;;;32.16;57.68;100596.84;5078581;27;70787;-39
2023/02/03 08:28:58;;;;;;;;;;;;;;;32.19;57.86;100601.00;5070580;27;66227;-39
2023/02/03 08:31:29;;;;;;;;;;;;;;;32.20;57.48;100592.59;5068110;28;70512;-38
2023/02/03 08:33:59;;;;;;;;;;;;;;;32.21;57.53;100588.84;5076361;27;66172;-37
2023/02/03 08:36:29;;;;;;;;;;;;;;;32.24;57.50;100592.97;5071688;27;69748;-38
2023/02/03 08:38:59;;;;;;;;;;;;;;;32.27;57.44;100597.91;5075249;28;66043;-38
2023/02/03 08:41:29;;;;;;;;;;;;;;;32.29;57.51;100593.09;5068491;27;70297;-38
2023/02/03 08:44:00;;;;;;;;;;;;;;;32.29;57.40;100593.09;5078089;27;66657;-37
2023/02/03 08:46:30;;;;;;;;;;;;;;;32.30;57.64;100592.03;5076053;27;70109;-38
2023/02/03 08:49:01;;;;;;;;;;;;;;;32.33;57.83;100586.13;5080010;27;66248;-37
2023/02/03 08:51:31;;;;;;;;;;;;;;;32.34;57.49;100585.03;5092798;27;70049;-39
2023/02/03 08:54:02;;;;;;;;;;;;;;;32.37;57.50;100591.88;5080479;27;66699;-38
2023/02/03 08:56:33;;;;;;;;;;;;;;;32.40;57.71;100592.25;5092323;27;69781;-37
2023/02/03 08:59:03;;;;;;;;;;;;;;;32.43;57.49;100588.22;5091789;27;65669;-37
2023/02/03 09:01:33;;;;;;;;;;;;;;;32.44;57.46;100588.00;5092636;27;70589;-38
2023/02/03 09:04:06;;;;;;;;;;;;;;;32.48;57.32;100589.22;5081299;27;66773;-40
2023/02/03 09:06:36;;;;;;;;;;;;;;;32.53;57.11;100590.38;5065914;27;69474;-38
2023/02/03 09:09:06;;;;;;;;;;;;;;;32.56;57.09;100584.47;5098593;27;66007;-38
2023/02/03 09:11:36;;;;;;;;;;;;;;;32.59;56.83;100583.97;5085290;27;69732;-40
2023/02/03 09:14:06;;;;;;;;;;;;;;;32.62;56.90;100588.94;5076917;27;66013;-39
2023/02/03 09:16:36;;;;;;;;;;;;;;;32.65;56.92;100588.44;5100392;27;70320;-38
2023/02/03 09:19:06;;;;;;;;;;;;;;;32.33;58.13;100588.81;5075042;27;66715;-39
2023/02/03 09:21:37;;;;;;;;;;;;;;;32.20;58.98;100591.78;5056402;27;69334;-39
2023/02/03 09:24:12;;;;;;;;;;;;;;;32.12;59.57;100586.69;5091963;27;66864;-38
2023/02/03 09:26:42;;;;;;;;;;;;;;;32.07;60.00;100592.84;5092242;27;70371;-39
2023/02/03 09:29:12;;;;;;;;;;;;;;;32.03;60.21;100591.66;5091077;27;65252;-38
2023/02/03 09:31:42;;;;;;;;;;;;;;;32.02;59.90;100590.00;5088234;27;69550;-38
2023/02/03 09:34:13;;;;;;;;;;;;;;;31.98;60.28;100589.66;5079444;27;64935;-39
2023/02/03 09:36:43;;;;;;;;;;;;;;;32.17;59.92;100593.06;5099551;27;70520;-38
2023/02/03 09:39:13;;;;;;;;;;;;;;;32.33;59.62;100591.53;5097823;27;67487;-38
2023/02/03 09:41:46;;;;;;;;;;;;;;;32.44;59.21;100593.41;5100249;27;70373;-42
2023/02/03 09:44:17;;;;;;;;;;;;;;;32.54;59.04;100592.00;5099316;27;66010;-44
2023/02/03 09:46:50;;;;;;;;;;;;;;;32.61;58.89;100598.16;5096458;27;69970;-38
2023/02/03 09:49:20;;;;;;;;;;;;;;;32.31;59.08;100599.09;5092153;27;66932;-39
2023/02/03 09:52:16;;;;;;;;;;;;;;;32.21;59.45;100596.16;5076139;27;71454;-42
2023/02/03 09:55:00;;;;;;;;;;;;;;;32.14;60.06;100603.59;5097448;27;66049;-40
2023/02/03 09:57:31;;;;;;;;;;;;;;;32.09;60.29;100607.00;5095213;27;69749;-40
2023/02/03 10:00:12;;;;;;;;;;;;;;;32.04;60.43;100596.88;5096057;27;66424;-42
2023/02/03 10:03:01;;;;;;;;;;;;;;;32.01;60.91;100602.75;5095066;27;70443;-39
2023/02/03 10:05:49;;;;;;;;;;;;;;;31.98;61.38;100608.66;5094903;27;66741;-40
2023/02/03 10:08:19;;;;;;;;;;;;;;;31.98;60.36;100605.94;5090798;27;69947;-39
2023/02/03 10:11:08;;;;;;;;;;;;;;;32.02;59.33;100606.28;5095911;27;65564;-39
2023/02/03 10:14:04;;;;;;;;;;;;;;;32.01;59.59;100605.47;5096826;27;70519;-40
2023/02/03 10:16:43;;;;;;;;;;;;;;;32.01;58.62;100616.31;5093477;27;65918;-41
2023/02/03 10:19:20;;;;;;;;;;;;;;;32.03;58.83;100611.47;5080587;27;68177;-37
2023/02/03 10:21:57;;;;;;;;;;;;;;;32.05;58.65;100617.50;5095022;27;66621;-38
2023/02/03 10:24:38;;;;;;;;;;;;;;;32.02;58.77;100612.53;5082346;27;70735;-37
2023/02/03 10:27:14;;;;;;;;;;;;;;;32.00;58.58;100613.84;5073942;27;66558;-38
2023/02/03 10:29:48;;;;;;;;;;;;;;;31.99;58.79;100618.44;5076378;27;69565;-37
2023/02/03 10:32:18;;;;;;;;;;;;;;;32.05;59.38;100617.50;5078318;27;64695;-38
2023/02/03 10:34:48;;;;;;;;;;;;;;;32.27;59.02;100619.63;5099090;27;69933;-40
2023/02/03 10:37:34;;;;;;;;;;;;;;;32.40;59.77;100624.84;5071957;27;65858;-41
2023/02/03 10:40:04;;;;;;;;;;;;;;;32.48;60.14;100623.66;5089588;27;70651;-39
2023/02/03 10:45:23;;;;;;;;;;;;;;;32.59;59.50;100627.44;5087094;27;68995;-38
2023/02/03 10:47:54;;;;;;;;;;;;;;;32.61;59.64;100631.56;5089882;27;66532;-41
2023/02/03 10:50:32;;;;;;;;;;;;;;;32.65;59.42;100637.31;5092584;27;69331;-38
2023/02/03 10:53:17;;;;;;;;;;;;;;;32.66;59.22;100634.38;5092931;27;66065;-39
2023/02/03 10:55:49;;;;;;;;;;;;;;;32.68;59.18;100636.84;5096358;27;69787;-38
2023/02/03 10:58:26;;;;;;;;;;;;;;;32.68;59.22;100647.72;5093022;27;66469;-41
2023/02/03 11:01:22;;;;;;;;;;;;;;;32.68;59.12;100647.72;5095076;27;70414;-39
2023/02/03 11:03:57;;;;;;;;;;;;;;;32.68;58.97;100653.16;5087116;27;66024;-41
2023/02/03 11:06:28;;;;;;;;;;;;;;;32.68;58.99;100648.56;5092572;27;71033;-39
2023/02/03 11:08:58;;;;;;;;;;;;;;;32.67;59.06;100656.94;5087787;27;65658;-41
2023/02/03 11:11:31;;;;;;;;;;;;;;;32.67;58.89;100656.94;5083857;27;70467;-39
2023/02/03 11:14:04;;;;;;;;;;;;;;;32.67;59.00;100656.94;5077630;27;66874;-43
2023/02/03 11:16:35;;;;;;;;;;;;;;;32.66;58.93;100666.16;5058095;27;69420;-37
2023/02/03 11:19:16;;;;;;;;;;;;;;;32.65;59.03;100661.78;5088756;27;65608;-39
2023/02/03 11:21:55;;;;;;;;;;;;;;;32.63;58.97;100672.06;5091572;27;70384;-39
2023/02/03 11:24:40;;;;;;;;;;;;;;;32.61;59.04;100675.00;5090858;27;66381;-40
2023/02/03 11:27:15;;;;;;;;;;;;;;;32.60;59.09;100678.78;5093345;27;68997;-40
2023/02/03 11:29:48;;;;;;;;;;;;;;;32.59;59.27;100682.56;5096726;27;66339;-38
2023/02/03 11:32:23;;;;;;;;;;;;;;;32.56;59.34;100688.47;5088338;27;71862;-41
2023/02/03 11:34:53;;;;;;;;;;;;;;;32.55;59.12;100686.00;5092306;27;66543;-40
2023/02/03 11:37:44;;;;;;;;;;;;;;;32.54;59.39;100689.75;5089186;27;69967;-41
2023/02/03 11:40:14;;;;;;;;;;;;;;;32.52;59.58;100697.34;5088662;27;66589;-38
2023/02/03 11:42:45;;;;;;;;;;;;;;;32.49;59.39;100699.47;5095305;27;69686;-42
2023/02/03 11:45:28;;;;;;;;;;;;;;;32.26;59.92;100699.38;5096227;27;66287;-39
2023/02/03 11:48:14;;;;;;;;;;;;;;;32.07;61.13;100706.81;5095931;27;69689;-39
2023/02/03 11:50:44;;;;;;;;;;;;;;;31.96;61.52;100713.03;5090862;27;65803;-40
2023/02/03 11:53:27;;;;;;;;;;;;;;;32.11;61.20;100704.44;5092016;27;70721;-39
2023/02/03 11:56:13;;;;;;;;;;;;;;;32.20;60.92;100700.34;5063384;27;66504;-39
2023/02/03 11:58:51;;;;;;;;;;;;;;;32.27;60.45;100714.63;5074851;27;69744;-39
2023/02/03 12:01:40;;;;;;;;;;;;;;;32.27;60.69;100722.78;5076241;27;66153;-38
2023/02/03 12:04:25;;;;;;;;;;;;;;;32.29;60.24;100720.66;5099441;27;68966;-38
2023/02/03 12:07:14;;;;;;;;;;;;;;;32.30;60.25;100727.72;5096664;27;66725;-42
2023/02/03 12:10:02;;;;;;;;;;;;;;;32.29;60.08;100734.22;5074389;27;69976;-41
2023/02/03 12:12:33;;;;;;;;;;;;;;;32.29;60.10;100731.53;5086385;27;66580;-39
2023/02/03 12:15:19;;;;;;;;;;;;;;;32.28;59.89;100740.69;5088644;27;70456;-39
2023/02/03 12:17:58;;;;;;;;;;;;;;;32.27;59.98;100747.22;5083804;27;67385;-38
2023/02/03 12:20:28;;;;;;;;;;;;;;;32.26;59.78;100753.66;5096318;27;70340;-42
2023/02/03 12:23:01;;;;;;;;;;;;;;;32.25;59.82;100752.03;5095066;27;65032;-41
2023/02/03 12:25:32;;;;;;;;;;;;;;;32.23;59.63;100759.56;5078065;27;70025;-39
2023/02/03 12:28:08;;;;;;;;;;;;;;;32.22;59.57;100766.06;5092027;27;65966;-39
2023/02/03 12:30:55;;;;;;;;;;;;;;;32.20;59.91;100768.19;5095241;27;70033;-41
2023/02/03 12:33:34;;;;;;;;;;;;;;;32.18;59.33;100762.16;5087957;27;65293;-38
2023/02/03 12:36:08;;;;;;;;;;;;;;;32.18;59.21;100773.00;5086697;27;69822;-41
2023/02/03 12:38:45;;;;;;;;;;;;;;;32.16;59.32;100780.56;5095057;27;65788;-41
2023/02/03 12:41:19;;;;;;;;;;;;;;;32.13;58.85;100781.03;5093905;27;70445;-38
2023/02/03 12:43:52;;;;;;;;;;;;;;;32.04;59.39;100784.06;5094501;27;66296;-41
2023/02/03 12:46:44;;;;;;;;;;;;;;;31.80;60.06;100785.00;5078950;27;69934;-41
2023/02/03 12:49:22;;;;;;;;;;;;;;;31.66;60.85;100786.22;5096816;27;66184;-40
2023/02/03 12:51:57;;;;;;;;;;;;;;;31.69;59.74;100796.63;5090833;27;70072;-40
2023/02/03 12:54:39;;;;;;;;;;;;;;;31.74;59.36;100794.06;5075992;27;64497;-41
2023/02/03 12:57:16;;;;;;;;;;;;;;;31.58;58.33;100798.22;5094826;27;69682;-40
2023/02/03 13:00:15;;;;;;;;;;;;;;;31.52;58.57;100807.25;5093493;27;66945;-39
2023/02/03 13:03:03;;;;;;;;;;;;;;;31.49;59.93;100813.97;5085164;27;70360;-40
2023/02/03 13:05:37;;;;;;;;;;;;;;;31.45;60.64;100803.78;5094057;27;66159;-39
2023/02/03 13:08:16;;;;;;;;;;;;;;;31.43;61.32;100801.31;5097837;27;70448;-36
2023/02/03 13:10:52;;;;;;;;;;;;;;;31.41;61.79;100811.53;5099148;27;65512;-43
2023/02/03 13:13:28;;;;;;;;;;;;;;;31.40;61.90;100812.59;5098868;27;69743;-39